Time;durP1;ratioP1;P1;durP2;ratioP2;P2;SDS_P1;SDS_P2;PMS_P1;PMS_P2;Temp;Humidity;BMP_temperature;BMP_pressure;BME280_temperature;BME280_humidity;BME280_pressure;Samples;Min_cycle;Max_cycle;Signal;HPM_P1;HPM_P2
2022/02/18 00:01:39;;;;;;;11.95;3.10;;;5.40;99.90;;;;;;5009520;28;20039;-74
2022/02/18 00:04:05;;;;;;;12.18;2.50;;;5.40;99.90;;;;;;5004878;28;20128;-74
2022/02/18 00:06:31;;;;;;;16.35;2.85;;;5.40;99.90;;;;;;5006685;28;20056;-74
2022/02/18 00:08:57;;;;;;;14.32;3.45;;;5.30;99.90;;;;;;5030889;28;20053;-74
2022/02/18 00:11:23;;;;;;;32.35;8.50;;;5.30;99.90;;;;;;5030569;28;20060;-73
2022/02/18 00:13:49;;;;;;;22.30;5.22;;;5.30;99.90;;;;;;5003526;28;20046;-74
2022/02/18 00:16:15;;;;;;;14.65;3.15;;;5.10;99.90;;;;;;5007445;28;20046;-74
2022/02/18 00:18:40;;;;;;;10.45;1.85;;;5.10;99.90;;;;;;4998361;28;20066;-74
2022/02/18 00:21:06;;;;;;;14.88;2.35;;;5.00;99.90;;;;;;5007020;28;20049;-74
2022/02/18 00:23:32;;;;;;;11.63;2.22;;;5.00;99.90;;;;;;5007295;28;20040;-74
2022/02/18 00:25:58;;;;;;;11.27;2.28;;;4.90;99.90;;;;;;5007271;28;20033;-74
2022/02/18 00:28:24;;;;;;;15.30;2.45;;;4.90;99.90;;;;;;5004858;28;20038;-74
2022/02/18 00:30:50;;;;;;;15.68;2.50;;;4.80;99.90;;;;;;5006328;28;20056;-74
2022/02/18 00:33:15;;;;;;;14.48;2.70;;;4.80;99.90;;;;;;5011205;28;20042;-74
2022/02/18 00:35:41;;;;;;;13.52;2.42;;;4.70;99.90;;;;;;5006377;28;20050;-74
2022/02/18 00:38:07;;;;;;;18.42;2.50;;;4.60;99.90;;;;;;5011698;28;20499;-74
2022/02/18 00:40:33;;;;;;;17.67;2.35;;;4.60;99.90;;;;;;5013052;28;20077;-74
2022/02/18 00:42:58;;;;;;;8.80;2.00;;;4.50;99.90;;;;;;5011630;28;20519;-74
2022/02/18 00:45:24;;;;;;;19.48;3.15;;;4.50;99.90;;;;;;5011909;28;20556;-74
2022/02/18 00:47:50;;;;;;;16.50;2.75;;;4.40;99.90;;;;;;5010696;28;20569;-74
2022/02/18 00:50:18;;;;;;;16.58;2.60;;;4.30;99.90;;;;;;5009512;28;20137;-74
2022/02/18 00:52:44;;;;;;;16.88;3.22;;;4.30;99.90;;;;;;5017221;28;20495;-74
2022/02/18 00:55:10;;;;;;;14.77;2.63;;;4.30;99.90;;;;;;5007317;28;20411;-74
2022/02/18 00:57:36;;;;;;;21.13;2.67;;;4.20;99.90;;;;;;5012987;28;20450;-74
2022/02/18 01:00:05;;;;;;;17.10;2.70;;;4.20;99.90;;;;;;5010297;28;20069;-74
2022/02/18 01:02:30;;;;;;;16.80;2.20;;;4.20;99.90;;;;;;5012524;28;20049;-74
2022/02/18 01:04:56;;;;;;;13.32;2.88;;;4.20;99.90;;;;;;5008926;28;20052;-74
2022/02/18 01:07:23;;;;;;;14.27;2.53;;;4.10;99.90;;;;;;5002897;28;20067;-74
2022/02/18 01:09:49;;;;;;;14.88;2.63;;;4.10;99.90;;;;;;5010818;28;20757;-74
2022/02/18 01:12:15;;;;;;;13.00;2.45;;;4.20;99.90;;;;;;5005053;28;20137;-74
2022/02/18 01:14:40;;;;;;;15.02;3.15;;;4.20;99.90;;;;;;5018532;28;20052;-74
2022/02/18 01:17:06;;;;;;;13.15;2.53;;;4.10;99.90;;;;;;5011596;28;20388;-74
2022/02/18 01:19:31;;;;;;;10.18;2.85;;;4.20;99.90;;;;;;5011768;28;20046;-74
2022/02/18 01:21:57;;;;;;;14.57;2.08;;;4.10;99.90;;;;;;5011431;28;20044;-74
2022/02/18 01:24:23;;;;;;;16.17;2.20;;;4.10;99.90;;;;;;5011490;28;20038;-74
2022/02/18 01:26:48;;;;;;;11.60;2.20;;;4.10;99.90;;;;;;5013562;28;20045;-74
2022/02/18 01:29:14;;;;;;;12.95;2.75;;;4.10;99.90;;;;;;5015189;28;20049;-74
2022/02/18 01:31:39;;;;;;;15.20;2.58;;;4.10;99.90;;;;;;5010997;28;20045;-74
2022/02/18 01:34:05;;;;;;;11.88;1.67;;;4.00;99.90;;;;;;5012683;28;20061;-74
2022/02/18 01:36:31;;;;;;;8.60;1.85;;;4.00;99.90;;;;;;5008932;28;20049;-74
2022/02/18 01:38:56;;;;;;;14.55;2.13;;;4.00;99.90;;;;;;5011545;28;20131;-74
2022/02/18 01:41:22;;;;;;;14.30;2.45;;;4.00;99.90;;;;;;4994177;28;20042;-73
2022/02/18 01:43:48;;;;;;;11.32;2.45;;;4.00;99.90;;;;;;5009228;28;20099;-73
2022/02/18 01:46:14;;;;;;;13.23;1.88;;;4.00;99.90;;;;;;5010420;28;20121;-73
2022/02/18 01:48:40;;;;;;;10.80;2.05;;;4.00;99.90;;;;;;5010101;28;20132;-73
2022/02/18 01:51:05;;;;;;;11.20;2.30;;;4.10;99.90;;;;;;5008159;28;20073;-73
2022/02/18 01:53:31;;;;;;;15.98;2.35;;;4.10;99.90;;;;;;5019118;28;20041;-74
2022/02/18 01:55:57;;;;;;;16.75;2.22;;;4.00;99.90;;;;;;5010308;28;20495;-74
2022/02/18 01:58:24;;;;;;;13.98;1.75;;;4.00;99.90;;;;;;5012015;28;20041;-74
2022/02/18 02:00:52;;;;;;;10.05;1.98;;;4.00;99.90;;;;;;5012388;28;20785;-74
2022/02/18 02:03:18;;;;;;;11.60;1.92;;;3.90;99.90;;;;;;5011432;28;20045;-74
2022/02/18 02:05:45;;;;;;;15.38;2.28;;;3.90;99.90;;;;;;5012170;28;20056;-74
2022/02/18 02:08:12;;;;;;;8.20;1.70;;;3.80;99.90;;;;;;5012474;28;20054;-74
2022/02/18 02:10:43;;;;;;;12.63;2.50;;;3.80;99.90;;;;;;5014040;28;20080;-74
2022/02/18 02:13:09;;;;;;;11.25;2.50;;;3.70;99.90;;;;;;5010930;28;20038;-74
2022/02/18 02:15:34;;;;;;;9.27;1.90;;;3.70;99.90;;;;;;5019807;28;20432;-74
2022/02/18 02:18:01;;;;;;;12.27;1.80;;;3.70;99.90;;;;;;5010673;28;20475;-74
2022/02/18 02:20:27;;;;;;;9.48;1.85;;;3.70;99.90;;;;;;4991997;28;20041;-74
2022/02/18 02:22:53;;;;;;;14.27;2.40;;;3.70;99.90;;;;;;5009454;28;20038;-74
2022/02/18 02:25:19;;;;;;;8.02;1.50;;;3.60;99.90;;;;;;5009799;28;20037;-74
2022/02/18 02:27:44;;;;;;;10.43;1.67;;;3.60;99.90;;;;;;5009835;28;20096;-74
2022/02/18 02:30:11;;;;;;;12.68;1.60;;;3.50;99.90;;;;;;5012965;28;20044;-74
2022/02/18 02:32:38;;;;;;;11.63;2.58;;;3.60;99.90;;;;;;5010172;28;20042;-74
2022/02/18 02:35:04;;;;;;;12.10;2.47;;;3.50;99.90;;;;;;5000699;28;20396;-74
2022/02/18 02:37:29;;;;;;;12.70;2.28;;;3.60;99.90;;;;;;5008435;28;20055;-74
2022/02/18 02:39:55;;;;;;;12.07;1.83;;;3.50;99.90;;;;;;5010796;28;20057;-74
2022/02/18 02:42:20;;;;;;;14.88;2.10;;;3.50;99.90;;;;;;5010433;28;20049;-74
2022/02/18 02:44:46;;;;;;;11.65;2.00;;;3.60;99.90;;;;;;5010761;28;20045;-74
2022/02/18 02:47:12;;;;;;;8.35;1.70;;;3.60;99.90;;;;;;5009417;28;20056;-74
2022/02/18 02:49:37;;;;;;;12.90;2.33;;;3.60;99.90;;;;;;5009759;28;20479;-74
2022/02/18 02:52:03;;;;;;;12.95;1.80;;;3.60;99.90;;;;;;4997100;28;21006;-74
2022/02/18 02:54:28;;;;;;;9.45;1.98;;;3.60;99.90;;;;;;5010703;28;20496;-74
2022/02/18 02:56:56;;;;;;;11.82;2.05;;;3.60;99.90;;;;;;5010462;28;20033;-74
2022/02/18 02:59:23;;;;;;;15.90;2.38;;;3.60;99.90;;;;;;5009958;28;20047;-74
2022/02/18 03:01:48;;;;;;;13.85;2.00;;;3.70;99.90;;;;;;5009796;28;20495;-74
2022/02/18 03:04:14;;;;;;;10.68;2.28;;;3.70;99.90;;;;;;5009302;28;20057;-74
2022/02/18 03:06:39;;;;;;;11.82;2.38;;;3.70;99.90;;;;;;5010069;28;20468;-74
2022/02/18 03:09:10;;;;;;;9.18;1.80;;;3.70;99.90;;;;;;5008418;28;20438;-74
2022/02/18 03:11:36;;;;;;;10.38;1.65;;;3.80;99.90;;;;;;4993206;28;20049;-74
2022/02/18 03:14:03;;;;;;;13.40;2.25;;;3.80;99.90;;;;;;5010965;28;20172;-74
2022/02/18 03:16:29;;;;;;;11.15;1.77;;;3.80;99.90;;;;;;5009423;28;20046;-74
2022/02/18 03:18:54;;;;;;;8.73;1.63;;;3.80;99.90;;;;;;4994329;28;20057;-74
2022/02/18 03:21:20;;;;;;;14.20;2.10;;;3.90;99.90;;;;;;5009408;28;20042;-74
2022/02/18 03:23:46;;;;;;;13.68;1.70;;;3.90;99.90;;;;;;5009987;28;20145;-74
2022/02/18 03:26:13;;;;;;;10.30;1.52;;;3.90;99.90;;;;;;5008091;28;20041;-74
2022/02/18 03:28:40;;;;;;;14.02;1.73;;;4.00;99.90;;;;;;5013523;28;20121;-74
2022/02/18 03:31:08;;;;;;;7.55;1.83;;;4.00;99.90;;;;;;5010154;28;20057;-74
2022/02/18 03:33:36;;;;;;;10.40;1.90;;;4.00;99.90;;;;;;5008789;28;20046;-74
2022/02/18 03:36:01;;;;;;;8.90;1.45;;;4.10;99.90;;;;;;5012029;28;20042;-74
2022/02/18 03:38:27;;;;;;;10.45;2.13;;;4.10;99.90;;;;;;4996774;28;20030;-74
2022/02/18 03:40:52;;;;;;;7.57;1.40;;;4.10;99.90;;;;;;5013762;28;20038;-74
2022/02/18 03:43:18;;;;;;;11.27;1.65;;;4.10;99.90;;;;;;4996193;28;20038;-74
2022/02/18 03:45:43;;;;;;;12.48;1.90;;;4.20;99.90;;;;;;5005159;28;20109;-74
2022/02/18 03:48:09;;;;;;;9.95;1.88;;;4.20;99.90;;;;;;5013706;28;20046;-74
2022/02/18 03:50:35;;;;;;;9.05;2.38;;;4.20;99.90;;;;;;5023053;28;20086;-74
2022/02/18 03:53:03;;;;;;;6.68;1.25;;;4.20;99.90;;;;;;4996290;28;20100;-74
2022/02/18 03:55:28;;;;;;;11.05;1.90;;;4.20;99.90;;;;;;5013025;28;20041;-74
2022/02/18 03:57:54;;;;;;;6.43;1.58;;;4.20;99.90;;;;;;5012717;28;20030;-74
2022/02/18 04:00:19;;;;;;;9.00;1.40;;;4.20;99.90;;;;;;5013293;28;20042;-74
2022/02/18 04:02:45;;;;;;;11.57;1.65;;;4.30;99.90;;;;;;5012831;28;20056;-74
2022/02/18 04:05:11;;;;;;;10.65;1.80;;;4.30;99.90;;;;;;4996075;28;20120;-74
2022/02/18 04:07:37;;;;;;;7.93;1.60;;;4.40;99.90;;;;;;5012451;28;20054;-74
2022/02/18 04:10:03;;;;;;;9.43;1.60;;;4.50;99.90;;;;;;5012088;28;20042;-74
2022/02/18 04:12:29;;;;;;;7.35;1.55;;;4.50;99.90;;;;;;5022145;28;20037;-74
2022/02/18 04:14:54;;;;;;;8.25;1.42;;;4.60;99.90;;;;;;5011905;28;20491;-74
2022/02/18 04:17:22;;;;;;;7.25;1.60;;;4.60;99.90;;;;;;5012395;28;20034;-74
2022/02/18 04:19:48;;;;;;;7.30;1.95;;;4.70;99.90;;;;;;5013137;28;20084;-74
2022/02/18 04:22:13;;;;;;;8.68;1.48;;;4.70;99.90;;;;;;5005831;28;20070;-74
2022/02/18 04:24:39;;;;;;;11.85;2.10;;;4.80;99.90;;;;;;5012879;28;20651;-74
2022/02/18 04:27:04;;;;;;;5.57;1.50;;;4.80;99.90;;;;;;5011463;28;20049;-74
2022/02/18 04:29:30;;;;;;;9.55;1.90;;;4.80;99.90;;;;;;5015587;28;20037;-74
2022/02/18 04:31:55;;;;;;;8.20;2.20;;;4.90;99.90;;;;;;5012910;28;20069;-74
2022/02/18 04:34:21;;;;;;;7.80;1.80;;;4.90;99.90;;;;;;5011017;28;20487;-74
2022/02/18 04:36:47;;;;;;;10.52;1.85;;;5.00;99.90;;;;;;5002471;28;20103;-74
2022/02/18 04:39:12;;;;;;;6.38;1.40;;;5.00;99.90;;;;;;5000571;28;20049;-74
2022/02/18 04:41:38;;;;;;;8.35;1.65;;;5.00;99.90;;;;;;5011938;28;20655;-74
2022/02/18 04:44:06;;;;;;;6.05;1.38;;;5.10;99.90;;;;;;5011227;28;20046;-74
2022/02/18 04:46:32;;;;;;;7.28;1.63;;;5.10;99.90;;;;;;5011553;28;20037;-74
2022/02/18 04:48:58;;;;;;;11.60;3.90;;;5.10;99.90;;;;;;5011607;28;20044;-74
2022/02/18 04:51:23;;;;;;;9.93;1.70;;;5.10;99.90;;;;;;5012373;28;20037;-74
2022/02/18 04:53:49;;;;;;;7.95;1.60;;;5.20;99.90;;;;;;5012515;28;20029;-74
2022/02/18 04:56:15;;;;;;;9.73;2.25;;;5.20;99.90;;;;;;4995074;28;20042;-74
2022/02/18 04:58:40;;;;;;;9.85;2.15;;;5.20;99.90;;;;;;5010883;28;20131;-74
2022/02/18 05:01:09;;;;;;;9.15;1.98;;;5.20;99.90;;;;;;5012486;28;20048;-74
2022/02/18 05:03:35;;;;;;;12.68;2.42;;;5.30;99.90;;;;;;5011836;28;20077;-74
2022/02/18 05:06:04;;;;;;;8.77;2.20;;;5.40;99.90;;;;;;4994851;28;20042;-74
2022/02/18 05:08:31;;;;;;;7.60;2.17;;;5.40;99.90;;;;;;5013587;28;20053;-74
2022/02/18 05:10:57;;;;;;;10.48;2.30;;;5.40;99.90;;;;;;5012120;28;20147;-74
2022/02/18 05:13:23;;;;;;;11.63;2.70;;;5.50;99.90;;;;;;5015220;28;20110;-74
2022/02/18 05:15:48;;;;;;;14.43;3.42;;;5.40;99.90;;;;;;5012444;28;20053;-74
2022/02/18 05:18:14;;;;;;;14.98;3.70;;;5.50;99.90;;;;;;5010769;28;20049;-74
2022/02/18 05:20:40;;;;;;;12.48;3.28;;;5.50;99.90;;;;;;5012078;28;20129;-74
2022/02/18 05:23:05;;;;;;;13.00;3.13;;;5.60;99.90;;;;;;5011586;28;20120;-74
2022/02/18 05:25:32;;;;;;;14.95;3.20;;;5.50;99.90;;;;;;5011414;28;20088;-74
2022/02/18 05:27:58;;;;;;;13.50;3.67;;;5.50;99.90;;;;;;5011807;28;20065;-74
2022/02/18 05:30:24;;;;;;;13.70;3.47;;;5.50;99.90;;;;;;5016327;28;20050;-74
2022/02/18 05:32:50;;;;;;;12.30;3.55;;;5.50;99.90;;;;;;5011177;28;20096;-73
2022/02/18 05:35:16;;;;;;;14.55;3.90;;;5.60;99.90;;;;;;5010710;28;20124;-74
2022/02/18 05:37:41;;;;;;;15.95;3.42;;;5.60;99.90;;;;;;5010681;28;20117;-74
2022/02/18 05:40:09;;;;;;;13.55;3.15;;;5.60;99.90;;;;;;5001579;28;20060;-74
2022/02/18 05:42:35;;;;;;;12.38;3.40;;;5.70;99.90;;;;;;5011642;28;20048;-74
2022/02/18 05:45:00;;;;;;;17.52;3.42;;;5.70;99.90;;;;;;5006964;28;20043;-74
2022/02/18 05:47:26;;;;;;;13.35;3.35;;;5.70;99.90;;;;;;5011712;28;20050;-74
2022/02/18 05:49:52;;;;;;;14.75;3.38;;;5.60;99.90;;;;;;5004602;28;20129;-74
2022/02/18 05:52:17;;;;;;;14.65;3.90;;;5.60;99.90;;;;;;4999018;28;20117;-74
2022/02/18 05:54:43;;;;;;;23.58;4.05;;;5.60;99.90;;;;;;5004139;28;20050;-74
2022/02/18 05:57:08;;;;;;;16.20;3.80;;;5.60;99.90;;;;;;5002700;28;20042;-74
2022/02/18 05:59:34;;;;;;;17.92;4.28;;;5.50;99.90;;;;;;5007161;28;20037;-74
2022/02/18 06:01:59;;;;;;;23.60;4.22;;;5.50;99.90;;;;;;5011027;28;20080;-74
2022/02/18 06:04:25;;;;;;;17.27;3.80;;;5.60;99.90;;;;;;5005040;28;20065;-74
2022/02/18 06:06:51;;;;;;;15.70;3.40;;;5.50;99.90;;;;;;5003313;28;20068;-74
2022/02/18 06:09:16;;;;;;;22.67;4.30;;;5.60;99.90;;;;;;5007685;28;20060;-74
2022/02/18 06:11:42;;;;;;;14.18;3.97;;;5.60;99.90;;;;;;5009573;28;20046;-74
2022/02/18 06:14:07;;;;;;;18.92;4.15;;;5.50;99.90;;;;;;4993659;28;20042;-74
2022/02/18 06:16:33;;;;;;;26.15;5.35;;;5.50;99.90;;;;;;4995319;28;20147;-74
2022/02/18 06:18:59;;;;;;;20.42;4.35;;;5.40;99.90;;;;;;5000534;28;20046;-74
2022/02/18 06:21:24;;;;;;;23.70;4.20;;;5.40;99.90;;;;;;4997818;28;20038;-74
2022/02/18 06:23:50;;;;;;;16.27;4.40;;;5.40;99.90;;;;;;5001640;28;20046;-74
2022/02/18 06:26:16;;;;;;;17.88;3.42;;;5.40;99.90;;;;;;4993501;28;20033;-74
2022/02/18 06:28:42;;;;;;;20.85;3.70;;;5.40;99.90;;;;;;4990337;28;20038;-73
2022/02/18 06:31:07;;;;;;;14.85;3.60;;;5.30;99.90;;;;;;4997518;28;20403;-73
2022/02/18 06:33:34;;;;;;;19.60;3.70;;;5.40;99.90;;;;;;5007485;28;20483;-73
2022/02/18 06:36:00;;;;;;;15.68;3.60;;;5.40;99.90;;;;;;4999843;28;20537;-73
2022/02/18 06:38:26;;;;;;;15.00;3.15;;;5.40;99.90;;;;;;5003344;28;20120;-73
2022/02/18 06:40:52;;;;;;;15.02;4.22;;;5.40;99.90;;;;;;5004035;28;20038;-73
2022/02/18 06:43:17;;;;;;;19.13;4.10;;;5.40;99.90;;;;;;5010257;28;20132;-73
2022/02/18 06:45:43;;;;;;;19.95;4.75;;;5.50;99.90;;;;;;5009779;28;20053;-73
2022/02/18 06:48:09;;;;;;;16.55;4.00;;;5.50;99.90;;;;;;5002141;28;20096;-73
2022/02/18 06:50:35;;;;;;;15.43;4.00;;;5.50;99.90;;;;;;5002940;28;20081;-73
2022/02/18 06:53:02;;;;;;;19.08;4.80;;;5.50;99.90;;;;;;5007084;28;20041;-73
2022/02/18 06:55:28;;;;;;;17.25;4.30;;;5.60;99.90;;;;;;5008012;28;20049;-73
2022/02/18 06:57:55;;;;;;;15.05;4.28;;;5.60;99.90;;;;;;5003477;28;20033;-73
2022/02/18 07:00:22;;;;;;;20.80;4.80;;;5.60;99.90;;;;;;5004537;28;20629;-73
2022/02/18 07:02:47;;;;;;;15.05;4.55;;;5.60;99.90;;;;;;5006565;28;20476;-73
2022/02/18 07:05:15;;;;;;;18.83;5.93;;;5.60;99.90;;;;;;5004856;28;20041;-73
2022/02/18 07:07:41;;;;;;;21.42;5.47;;;5.60;99.90;;;;;;5002086;28;20097;-73
2022/02/18 07:10:09;;;;;;;16.67;5.15;;;5.70;99.90;;;;;;5013523;28;20404;-73
2022/02/18 07:12:35;;;;;;;21.50;5.70;;;5.80;99.90;;;;;;4993063;28;20115;-73
2022/02/18 07:15:01;;;;;;;18.33;6.15;;;5.90;99.90;;;;;;5000492;28;20170;-73
2022/02/18 07:17:28;;;;;;;22.40;6.95;;;5.90;99.90;;;;;;5033205;28;20125;-73
2022/02/18 07:19:55;;;;;;;21.08;6.25;;;6.00;99.90;;;;;;5008537;28;20080;-73
2022/02/18 07:22:21;;;;;;;23.33;6.75;;;6.00;99.90;;;;;;5003775;28;20038;-73
2022/02/18 07:24:47;;;;;;;23.02;6.78;;;6.00;99.90;;;;;;5009812;28;20052;-74
2022/02/18 07:27:13;;;;;;;22.52;6.82;;;6.10;99.90;;;;;;5003908;28;20065;-74
2022/02/18 07:29:39;;;;;;;20.80;6.97;;;6.10;99.90;;;;;;5009795;28;20037;-74
2022/02/18 07:32:05;;;;;;;19.90;6.90;;;6.10;99.90;;;;;;5010133;28;20092;-73
2022/02/18 07:34:31;;;;;;;17.98;6.88;;;6.20;99.90;;;;;;5009936;28;20041;-73
2022/02/18 07:36:57;;;;;;;22.95;7.68;;;6.20;99.90;;;;;;5010223;28;20037;-74
2022/02/18 07:39:22;;;;;;;24.92;7.88;;;6.20;99.90;;;;;;5008710;28;20030;-74
2022/02/18 07:41:48;;;;;;;19.77;7.13;;;6.30;99.90;;;;;;5011317;28;20480;-74
2022/02/18 07:44:14;;;;;;;21.80;7.20;;;6.30;99.90;;;;;;5010017;28;20049;-74
2022/02/18 07:46:39;;;;;;;17.42;6.35;;;6.30;99.90;;;;;;4991626;28;20038;-73
2022/02/18 07:49:05;;;;;;;23.23;7.57;;;6.40;99.90;;;;;;5005341;28;20154;-74
2022/02/18 07:51:31;;;;;;;19.33;6.35;;;6.40;99.90;;;;;;5008004;28;20042;-74
2022/02/18 07:53:57;;;;;;;19.42;6.30;;;6.40;99.90;;;;;;5009536;28;20554;-73
2022/02/18 07:56:23;;;;;;;21.00;6.78;;;6.50;99.90;;;;;;4991549;28;20029;-74
2022/02/18 07:58:48;;;;;;;21.52;7.82;;;6.50;99.90;;;;;;4996775;28;20068;-74
2022/02/18 08:01:17;;;;;;;22.40;6.40;;;6.60;99.90;;;;;;5007431;28;20049;-74
2022/02/18 08:03:51;;;;;;;19.33;6.25;;;6.60;99.90;;;;;;5007251;28;20038;-74
2022/02/18 08:06:17;;;;;;;24.08;6.13;;;6.60;99.90;;;;;;4994816;28;20515;-74
2022/02/18 08:08:44;;;;;;;21.40;5.78;;;6.70;99.90;;;;;;5002339;28;20064;-74
2022/02/18 08:11:10;;;;;;;20.20;5.72;;;6.70;99.90;;;;;;5008060;28;20038;-74
2022/02/18 08:13:36;;;;;;;16.90;5.10;;;6.80;99.90;;;;;;5006242;28;20133;-74
2022/02/18 08:16:02;;;;;;;22.95;5.65;;;6.80;99.90;;;;;;5002419;28;20133;-74
2022/02/18 08:18:27;;;;;;;20.70;5.90;;;6.80;99.90;;;;;;5009207;28;20073;-73
2022/02/18 08:20:53;;;;;;;24.27;5.97;;;6.80;99.90;;;;;;5010787;28;20045;-74
2022/02/18 08:23:19;;;;;;;22.30;6.38;;;6.80;99.90;;;;;;5014024;28;20030;-74
2022/02/18 08:25:46;;;;;;;27.65;5.70;;;6.80;99.90;;;;;;5025517;28;20042;-74
2022/02/18 08:28:12;;;;;;;20.33;5.07;;;6.90;99.90;;;;;;5007617;28;20075;-74
2022/02/18 08:30:38;;;;;;;26.45;5.13;;;6.90;99.90;;;;;;5029466;28;20076;-74
2022/02/18 08:33:04;;;;;;;16.00;4.65;;;7.00;99.90;;;;;;5016761;28;20519;-74
2022/02/18 08:35:29;;;;;;;23.88;5.88;;;7.00;99.90;;;;;;5021908;28;20086;-74
2022/02/18 08:37:55;;;;;;;24.00;4.88;;;7.00;99.90;;;;;;5024013;28;20052;-74
2022/02/18 08:40:22;;;;;;;18.85;5.10;;;7.10;99.90;;;;;;5015022;28;20045;-74
2022/02/18 08:42:48;;;;;;;16.58;5.30;;;7.10;99.90;;;;;;5013917;28;20049;-74
2022/02/18 08:45:14;;;;;;;15.63;5.00;;;7.10;99.90;;;;;;5016214;28;20042;-73
2022/02/18 08:47:39;;;;;;;17.67;5.05;;;7.10;99.90;;;;;;5003320;28;20034;-73
2022/02/18 08:50:09;;;;;;;14.57;4.13;;;7.20;99.90;;;;;;5000541;28;20591;-73
2022/02/18 08:52:35;;;;;;;18.02;5.45;;;7.20;99.90;;;;;;5021473;28;20041;-73
2022/02/18 08:55:01;;;;;;;14.90;4.80;;;7.30;99.90;;;;;;4997152;28;20092;-73
2022/02/18 08:57:27;;;;;;;16.60;5.03;;;7.30;99.90;;;;;;5013504;28;20491;-73
2022/02/18 08:59:52;;;;;;;12.45;4.55;;;7.30;99.90;;;;;;5016184;28;20072;-74
2022/02/18 09:02:18;;;;;;;15.98;4.75;;;7.30;99.90;;;;;;5013227;28;20407;-74
2022/02/18 09:04:43;;;;;;;16.38;5.30;;;7.30;99.90;;;;;;5025959;28;20060;-74
2022/02/18 09:07:09;;;;;;;11.68;4.55;;;7.30;99.90;;;;;;4999836;28;20054;-73
2022/02/18 09:09:35;;;;;;;11.20;4.55;;;7.40;99.90;;;;;;5025971;28;20065;-74
2022/02/18 09:12:00;;;;;;;11.90;4.45;;;7.40;99.90;;;;;;5007603;28;20119;-74
2022/02/18 09:14:26;;;;;;;12.68;5.22;;;7.40;99.90;;;;;;5007483;28;20125;-73
2022/02/18 09:16:52;;;;;;;9.25;4.18;;;7.50;99.90;;;;;;5012291;28;20081;-73
2022/02/18 09:19:18;;;;;;;8.30;4.75;;;7.50;99.90;;;;;;5012595;28;20054;-73
2022/02/18 09:21:43;;;;;;;9.27;3.83;;;7.60;99.90;;;;;;5031575;22;20060;-72
2022/02/18 09:24:09;;;;;;;7.88;2.78;;;7.60;99.90;;;;;;5028872;28;20132;-72
2022/02/18 09:26:35;;;;;;;9.75;4.32;;;7.70;99.90;;;;;;5034747;28;20466;-72
2022/02/18 09:29:00;;;;;;;10.27;4.32;;;7.70;99.90;;;;;;5029501;28;20076;-72
2022/02/18 09:31:26;;;;;;;9.55;4.93;;;7.60;99.90;;;;;;5023125;28;20040;-72
2022/02/18 09:33:52;;;;;;;9.77;4.38;;;7.60;99.90;;;;;;5028820;28;20487;-72
2022/02/18 09:36:18;;;;;;;7.88;3.78;;;7.60;99.90;;;;;;5034736;28;20090;-72
2022/02/18 09:38:44;;;;;;;8.20;3.85;;;7.60;99.90;;;;;;5037673;28;20033;-72
2022/02/18 09:41:09;;;;;;;8.75;4.05;;;7.70;99.90;;;;;;5034053;28;20049;-72
2022/02/18 09:43:40;;;;;;;10.68;4.00;;;7.70;99.90;;;;;;5038750;28;20056;-72
2022/02/18 09:46:07;;;;;;;8.55;3.60;;;7.70;99.90;;;;;;5021257;28;20037;-72
2022/02/18 09:48:35;;;;;;;8.95;3.58;;;7.70;99.90;;;;;;5034313;28;20064;-72
2022/02/18 09:51:01;;;;;;;8.80;4.05;;;7.90;99.90;;;;;;5034100;28;20059;-72
2022/02/18 09:53:27;;;;;;;7.75;3.42;;;7.90;99.90;;;;;;5034762;28;20107;-72
2022/02/18 09:55:55;;;;;;;10.68;4.88;;;7.80;99.90;;;;;;5033348;28;20075;-73
2022/02/18 09:58:22;;;;;;;6.75;3.65;;;7.80;99.90;;;;;;5033926;28;20043;-72
2022/02/18 10:00:51;;;;;;;6.97;3.53;;;7.90;99.90;;;;;;5031780;28;20041;-72
2022/02/18 10:03:17;;;;;;;7.88;3.92;;;7.90;99.90;;;;;;5034856;28;20500;-72
2022/02/18 10:05:43;;;;;;;6.72;3.60;;;7.90;99.90;;;;;;5030854;28;20041;-72
2022/02/18 10:08:18;;;;;;;9.38;4.15;;;8.00;99.90;;;;;;5027760;28;20044;-72
2022/02/18 10:10:57;;;;;;;8.25;3.60;;;8.10;99.90;;;;;;5046022;28;20443;-72
2022/02/18 10:13:29;;;;;;;10.30;4.07;;;8.10;99.90;;;;;;5016139;28;20068;-72
2022/02/18 10:15:57;;;;;;;9.10;3.80;;;8.10;99.90;;;;;;5034459;28;20041;-72
2022/02/18 10:18:25;;;;;;;9.57;3.63;;;8.20;99.90;;;;;;5034109;28;20056;-72
2022/02/18 10:20:50;;;;;;;9.10;3.85;;;8.20;99.90;;;;;;5025405;28;20522;-73
2022/02/18 10:23:21;;;;;;;7.68;3.80;;;8.30;99.90;;;;;;5039414;28;20041;-72
2022/02/18 10:25:49;;;;;;;11.15;4.38;;;8.30;99.90;;;;;;5008406;28;20045;-72
2022/02/18 10:28:17;;;;;;;9.48;4.10;;;8.30;99.90;;;;;;5034578;28;20047;-71
2022/02/18 10:30:44;;;;;;;10.68;4.70;;;8.40;99.90;;;;;;5027602;28;20474;-71
2022/02/18 10:33:22;;;;;;;13.23;5.10;;;8.50;99.90;;;;;;5033605;28;20064;-71
2022/02/18 10:35:49;;;;;;;10.77;4.22;;;8.50;99.90;;;;;;5014664;28;20389;-71
2022/02/18 10:38:17;;;;;;;8.73;4.22;;;8.60;99.90;;;;;;5031080;28;20069;-71
2022/02/18 10:40:47;;;;;;;10.80;4.57;;;8.70;99.90;;;;;;5033100;28;20052;-71
2022/02/18 10:43:18;;;;;;;8.90;3.83;;;8.70;99.90;;;;;;5014388;28;20045;-71
2022/02/18 10:46:10;;;;;;;8.15;3.78;;;8.90;99.90;;;;;;5029337;28;20068;-71
2022/02/18 10:48:48;;;;;;;10.15;4.00;;;9.00;99.90;;;;;;5022283;28;20045;-71
2022/02/18 10:51:19;;;;;;;9.00;4.25;;;9.10;99.90;;;;;;5033409;28;20037;-71
2022/02/18 10:53:50;;;;;;;12.43;4.82;;;9.10;99.90;;;;;;5031385;28;20048;-71
2022/02/18 10:56:36;;;;;;;9.10;3.67;;;9.20;99.90;;;;;;5031303;28;20563;-71
2022/02/18 10:59:02;;;;;;;8.98;4.50;;;9.20;99.90;;;;;;5017121;28;20132;-71
2022/02/18 11:01:28;;;;;;;8.77;5.03;;;9.20;99.90;;;;;;5047032;28;20478;-70
2022/02/18 11:04:04;;;;;;;9.43;5.10;;;9.20;99.90;;;;;;5032234;28;20033;-70
2022/02/18 11:06:36;;;;;;;8.60;4.55;;;9.20;99.90;;;;;;5012806;28;20036;-71
2022/02/18 11:09:03;;;;;;;;;;;9.30;99.90;;;;;;5030298;28;20048;-71
2022/02/18 11:11:32;;;;;;;11.65;4.25;;;9.30;99.90;;;;;;5020476;28;20414;-71
2022/02/18 11:13:59;;;;;;;9.52;4.45;;;9.30;99.90;;;;;;5017978;28;20432;-71
2022/02/18 11:16:27;;;;;;;7.63;4.40;;;9.50;99.90;;;;;;5030680;28;20136;-71
2022/02/18 11:18:53;;;;;;;8.80;5.07;;;9.50;99.90;;;;;;5019978;28;20654;-71
2022/02/18 11:21:19;;;;;;;9.98;4.18;;;9.40;99.90;;;;;;5014509;28;20106;-71
2022/02/18 11:23:45;;;;;;;11.07;4.93;;;9.50;99.90;;;;;;5031469;28;20044;-71
2022/02/18 11:26:16;;;;;;;9.50;4.40;;;9.50;99.90;;;;;;5031360;28;20047;-71
2022/02/18 11:28:43;;;;;;;8.57;4.65;;;9.60;99.90;;;;;;5034406;28;20120;-72
2022/02/18 11:31:22;;;;;;;7.93;4.38;;;9.50;99.90;;;;;;5032926;28;20044;-71
2022/02/18 11:34:04;;;;;;;6.30;4.65;;;9.60;99.90;;;;;;5033617;28;20055;-71
2022/02/18 11:36:54;;;;;;;11.52;5.30;;;9.60;99.90;;;;;;5034218;28;20088;-72
2022/02/18 11:39:31;;;;;;;14.73;5.72;;;9.60;99.90;;;;;;5024678;28;20726;-72
2022/02/18 11:42:39;;;;;;;7.30;4.70;;;9.60;99.90;;;;;;5036506;28;20498;-71
2022/02/18 11:45:16;;;;;;;6.90;4.28;;;9.60;99.90;;;;;;5031943;28;20029;-71
2022/02/18 11:47:43;;;;;;;6.93;4.88;;;9.70;99.90;;;;;;5030711;28;20102;-71
2022/02/18 11:50:13;;;;;;;6.28;3.85;;;9.60;99.90;;;;;;5015330;28;20041;-71
2022/02/18 11:52:46;;;;;;;6.45;4.55;;;9.70;99.90;;;;;;5030121;28;20033;-71
2022/02/18 11:55:33;;;;;;;8.27;3.95;;;9.70;99.90;;;;;;5029572;28;20425;-71
2022/02/18 11:58:11;;;;;;;7.03;4.30;;;9.80;99.90;;;;;;5031824;28;20121;-71
2022/02/18 12:00:49;;;;;;;5.47;3.42;;;9.80;99.90;;;;;;5033496;28;20378;-71
2022/02/18 12:03:25;;;;;;;3.78;3.13;;;9.90;99.90;;;;;;5036711;28;20544;-71
2022/02/18 12:06:20;;;;;;;3.95;3.55;;;10.00;99.90;;;;;;5039412;28;20076;-71
2022/02/18 12:08:49;;;;;;;4.30;3.53;;;10.00;99.90;;;;;;5039531;28;20045;-71
2022/02/18 12:11:16;;;;;;;3.55;2.55;;;10.00;99.90;;;;;;5031141;28;20083;-72
2022/02/18 12:13:56;;;;;;;7.50;4.63;;;10.10;99.90;;;;;;5033239;28;20036;-71
2022/02/18 12:16:24;;;;;;;6.00;5.05;;;10.10;99.90;;;;;;5036985;28;20048;-72
2022/02/18 12:19:13;;;;;;;4.53;4.13;;;10.20;99.90;;;;;;5050070;28;20068;-71
2022/02/18 12:21:59;;;;;;;4.60;4.05;;;10.20;99.90;;;;;;5030684;28;20488;-71
2022/02/18 12:24:30;;;;;;;6.75;3.72;;;10.30;99.90;;;;;;5033083;28;20079;-72
2022/02/18 12:27:24;;;;;;;4.85;2.65;;;10.30;99.90;;;;;;5036459;28;20090;-71
2022/02/18 12:29:50;;;;;;;4.20;3.25;;;10.30;99.90;;;;;;5047026;28;20041;-71
2022/02/18 12:32:17;;;;;;;4.10;3.47;;;10.40;99.90;;;;;;5034514;28;20482;-71
2022/02/18 12:34:43;;;;;;;3.72;2.50;;;10.40;99.90;;;;;;5035379;28;20045;-71
2022/02/18 12:37:12;;;;;;;3.25;2.95;;;10.50;99.90;;;;;;5038738;28;20041;-71
2022/02/18 12:39:45;;;;;;;3.15;2.58;;;10.40;99.90;;;;;;5049087;28;20055;-71
2022/02/18 12:42:14;;;;;;;2.90;2.70;;;10.50;99.90;;;;;;5019706;28;20037;-72
2022/02/18 12:44:51;;;;;;;2.97;2.03;;;10.50;99.90;;;;;;5069893;28;20040;-71
2022/02/18 12:47:49;;;;;;;3.33;2.40;;;10.60;99.90;;;;;;5042833;28;20406;-71
2022/02/18 12:50:15;;;;;;;4.38;2.55;;;10.60;99.90;;;;;;5017110;28;20036;-71
2022/02/18 12:52:42;;;;;;;2.58;2.38;;;10.70;99.90;;;;;;5018645;28;20463;-71